createdAt,value
2023-03-18T00:00:10.050Z,22.42
2023-03-18T00:02:38.025Z,25.45
2023-03-18T00:05:05.977Z,22.20
2023-03-18T00:07:33.540Z,20.23
2023-03-18T00:10:00.141Z,22.85
2023-03-18T00:12:27.224Z,24.52
2023-03-18T00:14:53.842Z,25.98
2023-03-18T00:17:20.775Z,18.85
2023-03-18T00:19:48.390Z,21.05
2023-03-18T00:22:15.246Z,24.77
2023-03-18T00:24:41.925Z,29.27
2023-03-18T00:27:09.336Z,25.05
2023-03-18T00:29:35.941Z,18.52
2023-03-18T00:32:02.618Z,20.63
2023-03-18T00:34:29.268Z,26.33
2023-03-18T00:36:57.148Z,23.92
2023-03-18T00:39:26.359Z,24.13
2023-03-18T00:41:56.593Z,21.00
2023-03-18T00:44:25.296Z,27.88
2023-03-18T00:46:52.169Z,27.60
2023-03-18T00:49:19.101Z,27.35
2023-03-18T00:51:46.702Z,30.88
2023-03-18T00:54:17.887Z,29.90
2023-03-18T00:56:44.965Z,27.75
2023-03-18T00:59:11.912Z,32.08
2023-03-18T01:01:39.297Z,31.60
2023-03-18T01:04:07.315Z,34.78
2023-03-18T01:06:36.350Z,28.10
2023-03-18T01:09:05.239Z,37.75
2023-03-18T01:11:33.481Z,28.92
2023-03-18T01:14:00.594Z,41.70
2023-03-18T01:16:28.194Z,33.60
2023-03-18T01:18:55.038Z,37.78
2023-03-18T01:21:22.480Z,36.85
2023-03-18T01:23:49.207Z,36.78
2023-03-18T01:26:16.807Z,38.58
2023-03-18T01:28:43.542Z,33.58
2023-03-18T01:31:10.448Z,38.20
2023-03-18T01:33:37.211Z,36.90
2023-03-18T01:36:05.024Z,34.70
2023-03-18T01:38:32.531Z,33.22
2023-03-18T01:41:00.778Z,34.03
2023-03-18T01:43:34.286Z,41.45
2023-03-18T01:46:02.945Z,37.35
2023-03-18T01:48:33.525Z,46.88
2023-03-18T01:51:05.271Z,35.50
2023-03-18T01:53:36.441Z,37.05
2023-03-18T01:56:04.244Z,40.35
2023-03-18T01:58:38.568Z,37.58
2023-03-18T02:01:17.969Z,41.67
2023-03-18T02:06:12.377Z,37.20
2023-03-18T02:08:40.236Z,42.72
2023-03-18T02:11:09.137Z,38.22
2023-03-18T02:13:42.418Z,36.83
2023-03-18T02:16:32.573Z,40.58
2023-03-18T02:19:07.463Z,31.40
2023-03-18T02:21:59.032Z,35.55
2023-03-18T02:24:59.528Z,31.10
2023-03-18T02:27:30.009Z,31.75
2023-03-18T02:30:05.231Z,30.33
2023-03-18T02:32:33.702Z,30.50
2023-03-18T02:35:05.239Z,29.77
2023-03-18T02:37:31.882Z,32.67
2023-03-18T02:40:33.799Z,35.83
2023-03-18T02:43:31.708Z,36.03
2023-03-18T02:46:19.698Z,29.98
2023-03-18T02:48:48.878Z,33.40
2023-03-18T02:51:16.645Z,34.00
2023-03-18T02:53:44.648Z,32.13
2023-03-18T02:56:11.694Z,39.30
2023-03-18T02:58:39.044Z,38.80
2023-03-18T03:01:08.383Z,34.80
2023-03-18T03:03:36.074Z,31.90
2023-03-18T03:06:03.311Z,34.72
2023-03-18T03:08:30.421Z,29.33
2023-03-18T03:10:57.433Z,36.00
2023-03-18T03:13:24.827Z,35.17
2023-03-18T03:15:51.761Z,31.35
2023-03-18T03:18:18.527Z,39.80
2023-03-18T03:20:45.685Z,38.25
2023-03-18T03:23:14.625Z,36.42
2023-03-18T03:25:42.272Z,36.58
2023-03-18T03:28:09.094Z,38.95
2023-03-18T03:30:36.661Z,37.10
2023-03-18T03:33:04.057Z,33.47
2023-03-18T03:35:31.646Z,40.42
2023-03-18T03:37:58.538Z,36.00
2023-03-18T03:40:25.971Z,33.97
2023-03-18T03:42:52.644Z,34.05
2023-03-18T03:45:20.123Z,39.33
2023-03-18T03:47:47.699Z,39.35
2023-03-18T03:50:15.632Z,38.65
2023-03-18T03:52:43.414Z,34.40
2023-03-18T03:55:14.062Z,42.05
2023-03-18T03:57:40.905Z,36.17
2023-03-18T04:00:13.503Z,34.13
2023-03-18T04:02:43.374Z,38.97
2023-03-18T04:05:11.581Z,35.65
2023-03-18T04:07:39.220Z,38.13
2023-03-18T04:10:09.417Z,31.70
2023-03-18T04:12:36.558Z,34.53
2023-03-18T04:15:04.846Z,40.65
2023-03-18T04:17:31.493Z,32.97
2023-03-18T04:19:58.657Z,35.28
2023-03-18T04:22:25.345Z,31.90
2023-03-18T04:24:52.297Z,33.47
2023-03-18T04:27:18.956Z,33.85
2023-03-18T04:29:46.615Z,33.72
2023-03-18T04:32:13.397Z,31.52
2023-03-18T04:34:40.328Z,34.78
2023-03-18T04:37:08.559Z,36.58
2023-03-18T04:39:35.249Z,33.92
2023-03-18T04:42:01.970Z,32.75
2023-03-18T04:44:28.993Z,34.17
2023-03-18T04:46:55.745Z,37.55
2023-03-18T04:49:22.461Z,31.80
2023-03-18T04:51:49.115Z,29.92
2023-03-18T04:54:15.797Z,37.42
2023-03-18T04:56:43.652Z,33.20
2023-03-18T04:59:10.351Z,30.48
2023-03-18T05:01:37.004Z,38.22
2023-03-18T05:04:03.947Z,32.75
2023-03-18T05:06:31.708Z,42.72
2023-03-18T05:08:58.897Z,35.28
2023-03-18T05:11:27.119Z,37.40
2023-03-18T05:13:53.852Z,33.10
2023-03-18T05:16:20.536Z,39.67
2023-03-18T05:18:47.195Z,36.13
2023-03-18T05:21:13.965Z,34.05
2023-03-18T05:23:41.005Z,34.50
2023-03-18T05:26:07.680Z,36.05
2023-03-18T05:28:34.374Z,33.63
2023-03-18T05:31:01.415Z,34.88
2023-03-18T05:33:28.386Z,38.03
2023-03-18T05:35:55.223Z,39.60
2023-03-18T05:38:22.073Z,38.45
2023-03-18T05:40:49.088Z,37.30
2023-03-18T05:43:16.027Z,40.90
2023-03-18T05:45:44.104Z,35.13
2023-03-18T05:48:11.609Z,39.70
2023-03-18T05:50:41.965Z,33.35
2023-03-18T05:53:09.647Z,32.20
2023-03-18T05:55:36.421Z,34.47
2023-03-18T05:58:03.908Z,30.10
2023-03-18T06:00:31.418Z,26.75
2023-03-18T06:02:59.701Z,25.85
2023-03-18T06:05:27.284Z,26.05
2023-03-18T06:07:54.798Z,26.83
2023-03-18T06:10:23.050Z,30.50
2023-03-18T06:12:50.844Z,34.65
2023-03-18T06:15:18.873Z,30.58
2023-03-18T06:17:45.714Z,29.65
2023-03-18T06:20:14.554Z,36.22
2023-03-18T06:22:42.089Z,42.75
2023-03-18T06:25:09.994Z,36.45
2023-03-18T06:27:36.758Z,31.38
2023-03-18T06:30:04.690Z,43.03
2023-03-18T06:32:33.814Z,39.55
2023-03-18T06:35:01.084Z,41.08
2023-03-18T06:37:28.217Z,53.58
2023-03-18T06:39:54.893Z,39.72
2023-03-18T06:42:21.606Z,41.60
2023-03-18T06:44:51.181Z,39.05
2023-03-18T06:47:19.445Z,44.58
2023-03-18T06:49:46.945Z,42.80
2023-03-18T06:52:14.151Z,45.05
2023-03-18T06:54:41.162Z,46.80
2023-03-18T06:57:08.526Z,54.63
2023-03-18T06:59:35.714Z,50.60
2023-03-18T07:02:02.963Z,46.10
2023-03-18T07:04:29.606Z,55.00
2023-03-18T07:06:56.329Z,49.78
2023-03-18T07:09:24.515Z,56.75
2023-03-18T07:11:51.198Z,53.75
2023-03-18T07:14:18.394Z,60.17
2023-03-18T07:16:45.833Z,44.42
2023-03-18T07:19:12.732Z,49.33
2023-03-18T07:21:40.644Z,44.22
2023-03-18T07:24:07.475Z,58.95
2023-03-18T07:26:34.530Z,58.85
2023-03-18T07:29:01.708Z,62.38
2023-03-18T07:31:28.428Z,57.92
2023-03-18T07:33:55.140Z,60.17
2023-03-18T07:36:22.266Z,61.70
2023-03-18T07:38:49.435Z,70.25
2023-03-18T07:41:16.129Z,48.90
2023-03-18T07:43:43.498Z,56.95
2023-03-18T07:46:10.212Z,57.80
2023-03-18T07:48:36.916Z,51.92
2023-03-18T07:51:04.232Z,52.05
2023-03-18T07:53:30.891Z,49.55
2023-03-18T07:55:57.542Z,60.88
2023-03-18T07:58:25.661Z,58.35
2023-03-18T08:00:53.348Z,49.92
2023-03-18T08:03:20.591Z,50.35
2023-03-18T08:05:47.274Z,60.55
2023-03-18T08:08:13.920Z,56.40
2023-03-18T08:10:40.490Z,55.20
2023-03-18T08:13:07.106Z,56.85
2023-03-18T08:15:34.299Z,58.42
2023-03-18T08:18:01.638Z,47.72
2023-03-18T08:20:28.722Z,55.22
2023-03-18T08:22:56.020Z,62.35
2023-03-18T08:25:23.706Z,45.78
2023-03-18T08:27:52.312Z,59.95
2023-03-18T08:30:19.445Z,52.90
2023-03-18T08:32:46.450Z,43.58
2023-03-18T08:35:13.543Z,39.42
2023-03-18T08:37:40.402Z,32.65
2023-03-18T08:40:09.683Z,48.47
2023-03-18T08:42:36.333Z,53.40
2023-03-18T08:45:04.646Z,36.22
2023-03-18T08:47:31.554Z,50.25
2023-03-18T08:49:58.635Z,60.30
2023-03-18T08:52:25.659Z,35.22
2023-03-18T08:54:52.734Z,41.65
2023-03-18T08:57:19.446Z,49.92
2023-03-18T08:59:46.614Z,48.60
2023-03-18T09:02:18.368Z,31.48
2023-03-18T09:04:45.515Z,52.40
2023-03-18T09:07:13.156Z,53.25
2023-03-18T09:09:44.079Z,57.65
2023-03-18T09:12:12.442Z,48.15
2023-03-18T09:14:40.386Z,33.88
2023-03-18T09:17:07.408Z,36.35
2023-03-18T09:19:35.274Z,42.13
2023-03-18T09:22:02.018Z,39.00
2023-03-18T09:24:28.864Z,34.40
2023-03-18T09:26:55.650Z,39.85
2023-03-18T09:29:22.307Z,27.50
2023-03-18T09:31:49.205Z,39.05
2023-03-18T09:34:15.913Z,33.30
2023-03-18T09:36:49.199Z,32.38
2023-03-18T09:39:15.918Z,35.80
2023-03-18T09:42:05.437Z,27.15
2023-03-18T09:44:34.632Z,34.70
2023-03-18T09:47:26.489Z,28.73
2023-03-18T09:49:59.228Z,30.25
2023-03-18T09:52:35.879Z,26.52
2023-03-18T09:55:30.269Z,25.10
2023-03-18T09:58:03.085Z,25.50
2023-03-18T10:00:36.886Z,30.48
2023-03-18T10:03:10.873Z,27.45
2023-03-18T10:05:50.372Z,26.93
2023-03-18T10:08:42.966Z,26.23
2023-03-18T10:11:32.111Z,27.95
2023-03-18T10:14:26.428Z,23.05
2023-03-18T10:17:16.293Z,22.80
2023-03-18T10:19:54.295Z,28.75
2023-03-18T10:22:40.844Z,20.70
2023-03-18T10:25:27.027Z,19.27
2023-03-18T10:28:25.852Z,17.73
2023-03-18T10:31:01.775Z,21.27
2023-03-18T10:33:37.351Z,25.85
2023-03-18T10:36:18.631Z,17.40
2023-03-18T10:38:52.568Z,18.10
2023-03-18T10:41:38.955Z,21.47
2023-03-18T10:44:36.168Z,25.58
2023-03-18T10:47:19.775Z,18.48
2023-03-18T10:50:23.267Z,19.50
2023-03-18T10:53:23.524Z,20.17
2023-03-18T10:56:04.386Z,19.80
2023-03-18T10:58:31.000Z,20.13
2023-03-18T11:00:57.904Z,20.95
2023-03-18T11:03:31.684Z,16.42
2023-03-18T11:06:02.992Z,16.43
2023-03-18T11:08:29.772Z,16.48
2023-03-18T11:10:57.229Z,19.02
2023-03-18T11:13:23.877Z,17.35
2023-03-18T11:15:56.562Z,15.57
2023-03-18T11:18:26.540Z,18.73
2023-03-18T11:21:01.354Z,17.00
2023-03-18T11:23:49.036Z,19.48
2023-03-18T11:26:30.232Z,11.68
2023-03-18T11:29:00.474Z,15.93
2023-03-18T11:31:27.958Z,15.85
2023-03-18T11:33:59.139Z,12.50
2023-03-18T11:36:27.879Z,13.75
2023-03-18T11:39:01.317Z,14.48
2023-03-18T11:41:30.134Z,13.80
2023-03-18T11:44:00.970Z,16.35
2023-03-18T11:46:42.277Z,14.73
2023-03-18T11:49:16.447Z,15.50
2023-03-18T11:51:53.340Z,15.00
2023-03-18T11:54:44.450Z,15.85
2023-03-18T11:57:21.413Z,15.55
2023-03-18T12:00:09.874Z,18.52
2023-03-18T12:02:42.742Z,14.70
2023-03-18T12:05:41.713Z,16.20
2023-03-18T12:08:13.325Z,16.80
2023-03-18T12:11:06.458Z,16.65
2023-03-18T12:14:05.597Z,16.40
2023-03-18T12:16:44.757Z,12.93
2023-03-18T12:19:20.601Z,17.88
2023-03-18T12:22:05.710Z,15.05
2023-03-18T12:30:20.784Z,20.50
2023-03-18T12:33:17.131Z,22.90
2023-03-18T12:35:49.380Z,17.25
2023-03-18T12:38:53.244Z,16.17
2023-03-18T12:41:44.023Z,14.05
2023-03-18T12:44:48.020Z,12.07
2023-03-18T12:47:25.773Z,15.38
2023-03-18T12:50:02.188Z,16.20
2023-03-18T12:52:38.480Z,11.82
2023-03-18T12:55:27.128Z,12.15
2023-03-18T12:58:00.458Z,6.00
2023-03-18T13:00:34.932Z,7.47
2023-03-18T13:03:23.437Z,9.80
2023-03-18T13:05:58.462Z,9.30
2023-03-18T13:08:43.828Z,6.07
2023-03-18T13:11:48.409Z,7.72
2023-03-18T13:14:41.386Z,7.35
2023-03-18T13:17:17.101Z,8.23
2023-03-18T13:19:45.058Z,7.00
2023-03-18T13:22:33.488Z,8.70
2023-03-18T13:25:48.523Z,5.90
2023-03-18T13:28:40.099Z,5.18
2023-03-18T13:31:27.169Z,7.50
2023-03-18T13:34:12.629Z,6.35
2023-03-18T13:37:14.436Z,7.45
2023-03-18T13:40:23.483Z,8.15
2023-03-18T13:42:51.510Z,7.53
2023-03-18T13:45:32.707Z,8.05
2023-03-18T13:48:02.713Z,6.63
2023-03-18T13:50:43.211Z,6.55
2023-03-18T13:53:29.794Z,5.93
2023-03-18T13:55:56.576Z,5.22
2023-03-18T13:58:35.497Z,2.67
2023-03-18T14:01:16.053Z,2.88
2023-03-18T14:03:42.737Z,4.53
2023-03-18T14:06:10.030Z,7.00
2023-03-18T14:08:39.527Z,4.95
2023-03-18T14:11:22.768Z,5.30
2023-03-18T14:13:54.937Z,4.80
2023-03-18T14:16:28.528Z,5.03
2023-03-18T14:19:01.866Z,3.10
2023-03-18T14:21:31.004Z,4.50
2023-03-18T14:24:13.064Z,7.60
2023-03-18T14:26:41.152Z,2.90
2023-03-18T14:29:07.732Z,2.65
2023-03-18T14:31:40.515Z,3.88
2023-03-18T14:34:14.734Z,4.93
2023-03-18T14:36:49.036Z,2.78
2023-03-18T14:39:37.239Z,3.10
2023-03-18T14:42:13.576Z,5.85
2023-03-18T14:45:10.689Z,3.95
2023-03-18T14:47:43.415Z,3.05
2023-03-18T14:50:28.600Z,1.95
2023-03-18T14:53:12.653Z,4.28
2023-03-18T14:55:40.286Z,8.23
2023-03-18T14:58:11.628Z,3.30
2023-03-18T15:00:39.227Z,4.20
2023-03-18T15:03:09.438Z,3.47
2023-03-18T15:05:39.084Z,4.15
2023-03-18T15:08:19.565Z,1.83
2023-03-18T15:10:49.883Z,3.80
2023-03-18T15:13:22.416Z,2.40
2023-03-18T15:15:54.710Z,2.78
2023-03-18T15:18:34.445Z,7.57
2023-03-18T15:21:23.879Z,3.72
2023-03-18T15:23:54.271Z,6.88
2023-03-18T15:26:29.108Z,3.22
2023-03-18T15:28:58.484Z,4.20
2023-03-18T15:31:25.373Z,6.10
2023-03-18T15:34:05.660Z,7.28
2023-03-18T15:36:41.455Z,7.47
2023-03-18T15:39:21.490Z,3.67
2023-03-18T15:41:53.427Z,3.35
2023-03-18T15:44:37.233Z,4.35
2023-03-18T15:47:13.492Z,5.55
2023-03-18T15:49:51.486Z,1.85
2023-03-18T15:52:18.308Z,2.47
2023-03-18T15:54:48.307Z,2.13
2023-03-18T15:57:31.920Z,3.75
2023-03-18T15:59:58.723Z,3.42
2023-03-18T16:02:26.339Z,5.57
2023-03-18T16:04:53.617Z,4.18
2023-03-18T16:07:28.269Z,4.28
2023-03-18T16:12:31.185Z,5.18
2023-03-18T16:14:57.876Z,3.45
2023-03-18T16:17:24.648Z,2.65
2023-03-18T16:19:55.131Z,1.80
2023-03-18T16:22:22.208Z,3.78
2023-03-18T16:24:49.426Z,4.65
2023-03-18T16:27:43.272Z,5.45
2023-03-18T16:30:23.305Z,3.75
2023-03-18T16:32:50.521Z,2.58
2023-03-18T16:35:20.414Z,2.97
2023-03-18T16:37:48.544Z,6.20
2023-03-18T16:40:21.978Z,4.50
2023-03-18T16:42:49.382Z,8.02
2023-03-18T16:45:18.722Z,3.70
2023-03-18T16:47:47.404Z,4.50
2023-03-18T16:50:19.696Z,3.53
2023-03-18T16:52:47.470Z,4.32
2023-03-18T16:55:16.254Z,4.20
2023-03-18T16:57:47.423Z,3.50
2023-03-18T17:00:26.328Z,7.35
2023-03-18T17:02:53.568Z,2.85
2023-03-18T17:05:21.345Z,4.20
2023-03-18T17:07:49.566Z,6.68
2023-03-18T17:10:19.579Z,5.78
2023-03-18T17:12:54.196Z,2.60
2023-03-18T17:15:26.984Z,7.97
2023-03-18T17:17:57.975Z,2.60
2023-03-18T17:20:27.019Z,3.92
2023-03-18T17:22:54.441Z,4.90
2023-03-18T17:25:21.878Z,5.25
2023-03-18T17:27:57.385Z,3.45
2023-03-18T17:30:35.372Z,5.93
2023-03-18T17:33:04.314Z,4.32
2023-03-18T17:35:31.523Z,3.10
2023-03-18T17:37:59.162Z,4.85
2023-03-18T17:40:29.405Z,6.13
2023-03-18T17:42:56.438Z,2.65
2023-03-18T17:45:34.677Z,6.82
2023-03-18T17:48:10.345Z,8.27
2023-03-18T17:50:37.331Z,4.80
2023-03-18T17:53:04.124Z,5.28
2023-03-18T17:55:31.205Z,4.82
2023-03-18T17:57:58.113Z,2.45
2023-03-18T18:00:26.352Z,2.08
2023-03-18T18:02:57.972Z,7.38
2023-03-18T18:05:24.732Z,3.47
2023-03-18T18:07:51.584Z,4.05
2023-03-18T18:10:20.470Z,6.20
2023-03-18T18:12:49.818Z,7.72
2023-03-18T18:15:20.093Z,4.55
2023-03-18T18:17:48.458Z,7.47
2023-03-18T18:20:16.783Z,2.92
2023-03-18T18:22:48.281Z,8.52
2023-03-18T18:25:20.504Z,9.10
2023-03-18T18:27:48.246Z,5.05
2023-03-18T18:30:17.624Z,6.53
2023-03-18T18:32:45.833Z,9.23
2023-03-18T18:35:22.035Z,4.40
2023-03-18T18:37:53.037Z,3.15
2023-03-18T18:40:19.879Z,4.90
2023-03-18T18:42:46.530Z,4.85
2023-03-18T18:45:18.071Z,5.75
2023-03-18T18:47:45.072Z,8.27
2023-03-18T18:50:21.471Z,7.18
2023-03-18T18:52:48.230Z,4.38
2023-03-18T18:55:15.319Z,7.35
2023-03-18T18:57:42.890Z,5.65
2023-03-18T19:00:18.065Z,6.63
2023-03-18T19:02:46.725Z,9.10
2023-03-18T19:05:14.458Z,3.13
2023-03-18T19:07:45.349Z,3.65
2023-03-18T19:10:17.301Z,3.60
2023-03-18T19:12:44.640Z,6.22
2023-03-18T19:15:14.127Z,10.60
2023-03-18T19:17:43.321Z,8.10
2023-03-18T19:20:29.388Z,7.43
2023-03-18T19:22:57.392Z,6.15
2023-03-18T19:25:27.474Z,3.70
2023-03-18T19:27:54.796Z,4.93
2023-03-18T19:30:24.927Z,5.63
2023-03-18T19:32:52.216Z,5.10
2023-03-18T19:35:19.084Z,7.65
2023-03-18T19:37:47.792Z,6.63
2023-03-18T19:40:30.215Z,7.18
2023-03-18T19:42:57.197Z,5.57
2023-03-18T19:45:23.916Z,6.13
2023-03-18T19:47:50.917Z,6.47
2023-03-18T19:50:21.032Z,6.15
2023-03-18T19:52:48.068Z,6.95
2023-03-18T19:55:20.734Z,6.03
2023-03-18T19:57:48.631Z,6.53
2023-03-18T20:00:20.488Z,3.05
2023-03-18T20:02:49.657Z,4.82
2023-03-18T20:05:19.995Z,2.58
2023-03-18T20:07:46.997Z,3.17
2023-03-18T20:10:14.434Z,3.83
2023-03-18T20:12:46.771Z,5.13
2023-03-18T20:15:17.188Z,4.38
2023-03-18T20:17:45.883Z,4.80
2023-03-18T20:20:19.088Z,2.92
2023-03-18T20:23:07.614Z,1.20
2023-03-18T20:25:37.333Z,2.10
2023-03-18T20:28:05.940Z,3.80
2023-03-18T20:30:35.682Z,1.75
2023-03-18T20:33:04.317Z,1.60
2023-03-18T20:35:34.031Z,2.60
2023-03-18T20:38:05.966Z,2.03
2023-03-18T20:40:34.029Z,3.97
2023-03-18T20:43:01.689Z,1.52
2023-03-18T20:45:28.553Z,3.15
2023-03-18T20:47:56.539Z,2.03
2023-03-18T20:50:31.171Z,2.90
2023-03-18T20:55:28.670Z,1.92
2023-03-18T20:57:55.330Z,3.08
2023-03-18T21:00:25.347Z,1.55
2023-03-18T21:02:53.989Z,5.63
2023-03-18T21:05:21.838Z,2.80
2023-03-18T21:07:49.038Z,2.10
2023-03-18T21:10:18.789Z,4.43
2023-03-18T21:12:46.324Z,3.72
2023-03-18T21:15:24.933Z,4.78
2023-03-18T21:17:52.074Z,2.15
2023-03-18T21:20:22.760Z,2.15
2023-03-18T21:22:51.308Z,2.10
2023-03-18T21:25:19.101Z,7.15
2023-03-18T21:27:46.156Z,3.20
2023-03-18T21:30:13.858Z,4.68
2023-03-18T21:32:43.204Z,3.63
2023-03-18T21:35:29.665Z,3.03
2023-03-18T21:37:56.312Z,2.20
2023-03-18T21:40:24.515Z,2.25
2023-03-18T21:42:51.945Z,4.47
2023-03-18T21:45:21.364Z,2.63
2023-03-18T21:47:48.090Z,4.20
2023-03-18T21:50:23.984Z,3.65
2023-03-18T21:52:51.961Z,4.88
2023-03-18T21:55:19.110Z,3.47
2023-03-18T21:57:48.748Z,3.25
2023-03-18T22:00:19.916Z,2.05
2023-03-18T22:02:47.565Z,2.80
2023-03-18T22:05:17.630Z,3.50
2023-03-18T22:07:44.439Z,2.22
2023-03-18T22:10:15.978Z,6.65
2023-03-18T22:12:42.650Z,3.90
2023-03-18T22:15:34.068Z,2.90
2023-03-18T22:18:01.040Z,3.90
2023-03-18T22:20:28.082Z,6.03
2023-03-18T22:22:54.849Z,4.50
2023-03-18T22:25:30.972Z,3.35
2023-03-18T22:27:58.725Z,3.40
2023-03-18T22:30:28.012Z,3.92
2023-03-18T22:32:56.108Z,2.42
2023-03-18T22:35:25.518Z,7.20
2023-03-18T22:37:52.941Z,2.90
2023-03-18T22:40:28.332Z,4.03
2023-03-18T22:42:57.000Z,5.70
2023-03-18T22:45:26.500Z,7.45
2023-03-18T22:47:55.998Z,3.63
2023-03-18T22:50:25.208Z,4.10
2023-03-18T22:52:59.024Z,3.50
2023-03-18T22:55:28.338Z,5.07
2023-03-18T22:57:55.044Z,6.78
2023-03-18T23:00:38.645Z,5.85
2023-03-18T23:03:14.880Z,4.05
2023-03-18T23:05:41.547Z,4.88
2023-03-18T23:08:08.155Z,6.78
2023-03-18T23:10:34.840Z,5.80
2023-03-18T23:13:01.479Z,4.05
2023-03-18T23:15:28.202Z,4.53
2023-03-18T23:17:54.828Z,7.78
2023-03-18T23:20:21.504Z,4.88
2023-03-18T23:22:48.171Z,6.95
2023-03-18T23:25:17.774Z,5.45
2023-03-18T23:27:44.948Z,7.55
2023-03-18T23:30:13.202Z,4.63
2023-03-18T23:32:41.040Z,7.57
2023-03-18T23:35:08.937Z,9.07
2023-03-18T23:37:36.340Z,5.03
2023-03-18T23:40:03.818Z,6.20
2023-03-18T23:42:30.446Z,5.15
2023-03-18T23:44:57.186Z,5.22
2023-03-18T23:47:24.006Z,6.57
2023-03-18T23:49:50.797Z,7.25
2023-03-18T23:52:17.613Z,9.00
2023-03-18T23:54:44.379Z,5.45
2023-03-18T23:57:11.716Z,4.55
2023-03-18T23:59:38.830Z,6.78
